Time;durP1;ratioP1;P1;durP2;ratioP2;P2;SDS_P1;SDS_P2;PMS_P1;PMS_P2;Temp;Humidity;BMP_temperature;BMP_pressure;BME280_temperature;BME280_humidity;BME280_pressure;Samples;Min_cycle;Max_cycle;Signal;HPM_P1;HPM_P2
2022/10/17 00:02:25;;;;;;;13.43;7.65;;;;;;;10.89;100.00;99981.50;4469627;32;20105;-70
2022/10/17 00:04:52;;;;;;;13.85;7.60;;;;;;;10.88;100.00;99982.41;4469456;32;20145;-70
2022/10/17 00:07:19;;;;;;;11.48;7.55;;;;;;;10.94;100.00;99985.44;4469398;32;20545;-70
2022/10/17 00:09:46;;;;;;;16.15;7.55;;;;;;;10.94;100.00;99979.38;4469311;32;20587;-70
2022/10/17 00:12:14;;;;;;;11.63;6.80;;;;;;;10.93;100.00;99977.69;4469322;32;20377;-70
2022/10/17 00:14:41;;;;;;;14.45;7.12;;;;;;;10.91;100.00;99974.34;4469377;32;20159;-70
2022/10/17 00:17:08;;;;;;;12.82;7.40;;;;;;;10.81;100.00;99979.41;4469210;32;20507;-70
2022/10/17 00:19:35;;;;;;;14.02;7.90;;;;;;;10.78;100.00;99975.22;4469354;32;20158;-70
2022/10/17 00:22:02;;;;;;;10.13;6.60;;;;;;;10.74;100.00;99976.38;4469175;32;20176;-70
2022/10/17 00:24:30;;;;;;;12.70;7.80;;;;;;;10.72;100.00;99970.41;4469330;32;20105;-70
2022/10/17 00:26:57;;;;;;;11.50;7.00;;;;;;;10.74;100.00;99979.00;4469148;32;20123;-70
2022/10/17 00:29:24;;;;;;;15.05;7.70;;;;;;;10.76;100.00;99971.84;4469306;32;20133;-70
2022/10/17 00:31:56;;;;;;;11.05;6.40;;;;;;;10.77;100.00;99973.53;4469182;32;20507;-70
2022/10/17 00:34:23;;;;;;;12.25;7.00;;;;;;;10.71;100.00;99976.59;4469235;32;20092;-70
2022/10/17 00:36:51;;;;;;;10.40;6.75;;;;;;;10.68;100.00;99976.81;4467763;32;20127;-70
2022/10/17 00:39:18;;;;;;;13.55;6.82;;;;;;;10.72;100.00;99980.91;4469035;32;20167;-70
2022/10/17 00:41:46;;;;;;;11.68;6.70;;;;;;;10.71;100.00;99984.44;4467601;32;20093;-70
2022/10/17 00:44:28;;;;;;;14.15;7.75;;;;;;;10.71;100.00;99986.25;4469102;32;20442;-70
2022/10/17 00:47:09;;;;;;;12.77;7.25;;;;;;;10.69;100.00;99981.13;4468981;32;20148;-70
2022/10/17 00:49:37;;;;;;;13.02;7.07;;;;;;;10.60;100.00;99982.59;4467963;32;20096;-70
2022/10/17 00:52:28;;;;;;;9.90;6.82;;;;;;;10.53;100.00;99983.13;4468842;32;20112;-70
2022/10/17 00:55:12;;;;;;;15.02;7.37;;;;;;;10.52;100.00;99976.19;4468727;32;20093;-70
2022/10/17 00:57:40;;;;;;;15.20;7.15;;;;;;;10.52;100.00;99978.81;4467750;32;20127;-70
2022/10/17 01:00:09;;;;;;;11.05;7.25;;;;;;;10.54;100.00;99974.34;4467561;32;20474;-70
2022/10/17 01:02:36;;;;;;;13.75;7.10;;;;;;;10.57;100.00;99971.50;4467473;32;20084;-70
2022/10/17 01:05:05;;;;;;;13.60;6.70;;;;;;;10.60;100.00;99972.09;4468633;32;20097;-70
2022/10/17 01:07:34;;;;;;;12.35;6.97;;;;;;;10.52;100.00;99970.97;4468398;32;20101;-70
2022/10/17 01:10:04;;;;;;;10.15;6.97;;;;;;;10.48;100.00;99973.78;4467314;32;20152;-70
2022/10/17 01:13:21;;;;;;;14.15;7.20;;;;;;;10.47;100.00;99971.28;4467382;32;20097;-70
2022/10/17 01:15:56;;;;;;;16.30;7.03;;;;;;;10.54;100.00;99976.94;4422356;32;20102;-70
2022/10/17 01:18:40;;;;;;;12.52;7.00;;;;;;;10.59;100.00;99978.28;4422372;32;20098;-70
2022/10/17 01:21:13;;;;;;;;;;;;;;;10.54;100.00;99976.94;4435446;32;20105;-70
2022/10/17 01:24:05;;;;;;;13.38;6.50;;;;;;;10.55;100.00;99968.13;4422030;32;20015;-70
2022/10/17 01:26:38;;;;;;;14.43;7.75;;;;;;;10.52;100.00;99974.41;4434980;32;20109;-70
2022/10/17 01:29:22;;;;;;;14.80;8.98;;;;;;;10.53;100.00;99973.47;4435111;32;20463;-70
2022/10/17 01:31:58;;;;;;;12.48;8.18;;;;;;;10.53;100.00;99972.66;4422051;32;20120;-70
2022/10/17 01:34:38;;;;;;;14.70;7.87;;;;;;;10.56;100.00;99969.81;4435007;32;20089;-70
2022/10/17 01:37:14;;;;;;;12.52;7.45;;;;;;;10.54;100.00;99961.22;4409451;32;20135;-70
2022/10/17 01:39:43;;;;;;;13.23;7.53;;;;;;;10.44;100.00;99966.25;4434839;32;20128;-70
2022/10/17 01:42:36;;;;;;;11.35;7.45;;;;;;;10.40;100.00;99964.78;4422492;32;20147;-70
2022/10/17 01:45:13;;;;;;;15.73;8.05;;;;;;;10.36;100.00;99963.34;4435072;32;20120;-70
2022/10/17 01:47:41;;;;;;;12.75;6.97;;;;;;;10.38;100.00;99964.06;4466567;32;20089;-70
2022/10/17 01:50:13;;;;;;;10.65;6.50;;;;;;;10.29;100.00;99963.72;4468147;32;20122;-70
2022/10/17 01:52:45;;;;;;;15.82;7.53;;;;;;;10.29;100.00;99970.72;4480633;32;20097;-70
2022/10/17 01:55:20;;;;;;;11.88;7.43;;;;;;;10.26;100.00;99969.16;4482049;32;20089;-70
2022/10/17 01:57:50;;;;;;;15.38;8.20;;;;;;;10.27;100.00;99965.59;4468825;32;20126;-70
2022/10/17 02:00:20;;;;;;;16.55;7.40;;;;;;;10.25;100.00;99971.88;4469525;32;20115;-70
2022/10/17 02:02:53;;;;;;;12.45;7.18;;;;;;;10.23;100.00;99974.59;4470558;32;20096;-70
2022/10/17 02:05:24;;;;;;;12.98;7.57;;;;;;;10.08;100.00;99965.19;4456419;32;20080;-70
2022/10/17 02:07:51;;;;;;;12.70;7.35;;;;;;;10.05;100.00;99975.88;4468945;32;20166;-70
2022/10/17 02:10:29;;;;;;;16.12;7.95;;;;;;;10.05;100.00;99974.09;4470303;32;20113;-70
2022/10/17 02:13:06;;;;;;;14.65;7.57;;;;;;;10.08;100.00;99978.28;4456187;32;20472;-70
2022/10/17 02:15:58;;;;;;;15.48;8.07;;;;;;;10.15;100.00;99979.53;4470159;32;20095;-70
2022/10/17 02:19:14;;;;;;;14.07;7.32;;;;;;;10.03;100.00;99973.34;4455951;32;20486;-70
2022/10/17 02:21:57;;;;;;;19.75;9.25;;;;;;;9.94;100.00;99974.81;4455953;32;20089;-70
2022/10/17 02:24:44;;;;;;;14.60;8.20;;;;;;;9.89;100.00;99976.06;4469985;32;20200;-70
2022/10/17 02:27:28;;;;;;;15.15;8.07;;;;;;;9.91;100.00;99974.19;4456210;32;20509;-70
2022/10/17 02:30:10;;;;;;;17.08;8.13;;;;;;;9.83;100.00;99977.31;4456109;32;20794;-70
2022/10/17 02:32:55;;;;;;;15.93;8.35;;;;;;;9.74;100.00;99970.91;4470314;32;20508;-70
2022/10/17 02:35:25;;;;;;;14.38;8.10;;;;;;;9.85;100.00;99982.44;4456096;32;20084;-70
2022/10/17 02:37:52;;;;;;;13.48;7.55;;;;;;;9.81;100.00;99978.34;4455794;32;20158;-70
2022/10/17 02:40:20;;;;;;;14.30;7.85;;;;;;;9.82;100.00;99977.41;4456203;32;20117;-70
2022/10/17 02:42:48;;;;;;;14.18;7.78;;;;;;;9.90;100.00;99973.34;4469861;32;20455;-70
2022/10/17 02:45:15;;;;;;;14.98;8.25;;;;;;;9.93;100.00;99982.75;4455830;32;20089;-70
2022/10/17 02:47:50;;;;;;;19.00;8.23;;;;;;;9.95;100.00;99983.53;4469903;32;20089;-70
2022/10/17 02:50:21;;;;;;;13.40;8.50;;;;;;;9.87;100.00;99991.03;4469788;32;20164;-70
2022/10/17 02:52:55;;;;;;;14.63;8.15;;;;;;;9.82;100.00;99991.34;4455658;32;20112;-70
2022/10/17 02:55:46;;;;;;;14.65;7.28;;;;;;;9.81;100.00;99994.06;4455627;32;20100;-70
2022/10/17 02:58:24;;;;;;;12.40;7.70;;;;;;;9.75;100.00;99996.16;4455554;32;20147;-70
2022/10/17 03:00:52;;;;;;;13.75;8.70;;;;;;;9.74;100.00;99998.88;4455821;32;20100;-70
2022/10/17 03:03:25;;;;;;;20.08;8.73;;;;;;;9.68;100.00;99999.28;4460667;32;20545;-70
2022/10/17 03:05:52;;;;;;;15.68;8.63;;;;;;;9.67;100.00;100008.06;4485477;32;20116;-70
2022/10/17 03:08:21;;;;;;;15.00;8.85;;;;;;;9.69;100.00;99999.16;4474467;32;20093;-70
2022/10/17 03:10:48;;;;;;;12.43;8.65;;;;;;;9.63;100.00;100001.34;4469805;32;20109;-70
2022/10/17 03:13:17;;;;;;;18.00;9.38;;;;;;;9.63;100.00;99998.72;4470063;32;20159;-70
2022/10/17 03:15:45;;;;;;;14.55;8.60;;;;;;;9.70;100.00;99995.59;4469774;32;20088;-70
2022/10/17 03:18:12;;;;;;;15.10;8.43;;;;;;;9.86;100.00;99986.75;4469900;32;20165;-70
2022/10/17 03:20:40;;;;;;;13.13;8.18;;;;;;;9.98;100.00;99996.41;4469787;32;20130;-70
2022/10/17 03:23:07;;;;;;;15.73;8.63;;;;;;;9.96;100.00;99998.25;4469727;32;20445;-70
2022/10/17 03:25:35;;;;;;;17.67;9.40;;;;;;;9.95;100.00;100001.84;4469890;32;20363;-70
2022/10/17 03:28:04;;;;;;;16.87;9.43;;;;;;;9.88;100.00;100006.63;4469795;32;20092;-70
2022/10/17 03:30:32;;;;;;;14.43;9.73;;;;;;;9.87;100.00;100014.59;4469587;32;20100;-70
2022/10/17 03:32:59;;;;;;;15.23;9.25;;;;;;;9.82;100.00;100016.69;4469902;32;20126;-70
2022/10/17 03:35:27;;;;;;;14.05;9.10;;;;;;;9.71;100.00;100015.59;4455426;32;20155;-70
2022/10/17 03:37:55;;;;;;;17.08;9.52;;;;;;;9.64;100.00;100018.72;4469925;32;20124;-70
2022/10/17 03:40:22;;;;;;;15.32;8.95;;;;;;;9.57;100.00;100020.91;4469582;32;20097;-70
2022/10/17 03:42:50;;;;;;;22.55;8.90;;;;;;;9.61;100.00;100017.13;4469539;32;20454;-70
2022/10/17 03:45:17;;;;;;;16.40;8.88;;;;;;;9.63;100.00;100028.38;4469662;32;20150;-70
2022/10/17 03:47:44;;;;;;;15.57;9.25;;;;;;;9.63;100.00;100025.75;4469731;32;20105;-70
2022/10/17 03:50:11;;;;;;;22.45;12.18;;;;;;;9.56;100.00;100035.75;4469720;32;20115;-70
2022/10/17 03:52:46;;;;;;;17.08;9.48;;;;;;;9.56;100.00;100033.13;4469870;32;20084;-70
2022/10/17 03:55:14;;;;;;;18.62;9.40;;;;;;;9.50;100.00;100035.31;4469754;32;20543;-70
2022/10/17 03:57:42;;;;;;;16.85;9.23;;;;;;;9.47;100.00;100038.97;4469800;32;20096;-70
2022/10/17 04:00:12;;;;;;;23.67;10.10;;;;;;;9.39;100.00;100029.00;4469714;32;20165;-70
2022/10/17 04:02:40;;;;;;;19.02;9.98;;;;;;;9.36;100.00;100037.03;4469539;32;20618;-70
2022/10/17 04:05:08;;;;;;;21.50;10.63;;;;;;;9.31;100.00;100039.12;4469453;32;20882;-70
2022/10/17 04:07:36;;;;;;;18.73;9.93;;;;;;;9.24;100.00;100040.44;4474769;32;20112;-70
2022/10/17 04:10:04;;;;;;;24.20;10.98;;;;;;;9.23;100.00;100041.38;4484972;32;20109;-70
2022/10/17 04:12:31;;;;;;;22.42;10.00;;;;;;;9.19;100.00;100039.88;4472347;32;20156;-70
2022/10/17 04:14:59;;;;;;;16.33;10.00;;;;;;;9.08;100.00;100039.72;4469160;32;20449;-70
2022/10/17 04:17:26;;;;;;;21.83;10.00;;;;;;;9.12;100.00;100044.66;4485316;32;20093;-70
2022/10/17 04:19:53;;;;;;;19.75;10.70;;;;;;;9.05;100.00;100039.00;4470699;32;20706;-70
2022/10/17 04:22:21;;;;;;;17.67;10.40;;;;;;;9.04;100.00;100047.75;4479275;32;20118;-70
2022/10/17 04:24:48;;;;;;;20.27;10.95;;;;;;;9.01;100.00;100047.13;4469548;32;20093;-70
2022/10/17 04:27:16;;;;;;;17.77;10.40;;;;;;;9.00;100.00;100050.66;4474604;32;20164;-70
2022/10/17 04:29:44;;;;;;;18.87;10.80;;;;;;;8.99;100.00;100060.28;4482131;32;20080;-70
2022/10/17 04:32:11;;;;;;;17.80;10.07;;;;;;;8.96;100.00;100059.62;4471477;32;20154;-70
2022/10/17 04:34:39;;;;;;;21.58;11.07;;;;;;;8.91;100.00;100059.06;4469300;32;20433;-70
2022/10/17 04:37:06;;;;;;;22.73;11.25;;;;;;;8.88;100.00;100058.31;4482753;32;20101;-70
2022/10/17 04:39:33;;;;;;;22.45;11.63;;;;;;;8.87;100.00;100063.63;4480004;32;20183;-70
2022/10/17 04:42:00;;;;;;;19.02;11.38;;;;;;;8.85;100.00;100062.91;4468904;32;20097;-70
2022/10/17 04:44:29;;;;;;;22.05;12.05;;;;;;;8.82;100.00;100060.47;4468955;32;20101;-70
2022/10/17 04:46:56;;;;;;;23.40;12.07;;;;;;;8.80;100.00;100059.72;4472745;32;20442;-70
2022/10/17 04:49:24;;;;;;;17.73;11.38;;;;;;;8.78;100.00;100057.22;4469021;32;20107;-70
2022/10/17 04:51:51;;;;;;;20.73;11.65;;;;;;;8.82;100.00;100063.91;4468736;32;20096;-70
2022/10/17 04:54:22;;;;;;;18.80;10.40;;;;;;;8.80;100.00;100070.19;4468709;32;20096;-70
2022/10/17 04:56:50;;;;;;;21.70;11.10;;;;;;;8.74;100.00;100060.94;4477290;32;20077;-70
2022/10/17 04:59:18;;;;;;;21.98;12.60;;;;;;;8.72;100.00;100069.78;4475824;32;20131;-70
2022/10/17 05:01:45;;;;;;;21.15;11.02;;;;;;;8.68;100.00;100069.97;4478260;32;20495;-71
2022/10/17 05:04:12;;;;;;;24.12;11.15;;;;;;;8.72;100.00;100077.63;4467485;32;20491;-70
2022/10/17 05:06:39;;;;;;;18.05;10.60;;;;;;;8.70;100.00;100081.19;4474977;32;20103;-70
2022/10/17 05:09:08;;;;;;;18.87;11.82;;;;;;;8.69;100.00;100084.72;4474643;32;20100;-70
2022/10/17 05:11:36;;;;;;;23.40;12.50;;;;;;;8.65;100.00;100088.47;4471824;32;20179;-70
2022/10/17 05:14:03;;;;;;;21.30;11.30;;;;;;;8.67;100.00;100088.37;4473238;31;20104;-71
2022/10/17 05:16:31;;;;;;;21.08;10.80;;;;;;;8.66;100.00;100090.16;4469171;32;20089;-70
2022/10/17 05:18:59;;;;;;;18.58;11.23;;;;;;;8.70;100.00;100090.78;4479660;32;20491;-70
2022/10/17 05:21:28;;;;;;;25.12;11.90;;;;;;;8.73;100.00;100089.78;4478613;32;20197;-70
2022/10/17 05:23:56;;;;;;;20.98;11.43;;;;;;;8.75;100.00;100099.22;4468327;32;20093;-69
2022/10/17 05:26:24;;;;;;;17.67;11.93;;;;;;;8.85;100.00;100099.47;4474057;31;20113;-69
2022/10/17 05:28:51;;;;;;;21.85;11.23;;;;;;;8.95;100.00;100094.50;4472985;32;20168;-70
2022/10/17 05:31:19;;;;;;;22.58;11.40;;;;;;;8.99;100.00;100107.34;4470837;32;20160;-69
2022/10/17 05:33:47;;;;;;;30.65;11.70;;;;;;;9.05;100.00;100104.34;4476920;32;20120;-69
2022/10/17 05:36:14;;;;;;;25.02;11.65;;;;;;;9.17;100.00;100107.94;4480633;32;20120;-69
2022/10/17 05:38:42;;;;;;;21.10;10.32;;;;;;;9.23;100.00;100111.97;4480259;32;20095;-70
2022/10/17 05:41:10;;;;;;;26.05;11.60;;;;;;;9.37;100.00;100119.81;4477113;32;20156;-69
2022/10/17 05:43:37;;;;;;;23.77;11.93;;;;;;;9.43;100.00;100120.34;4468920;32;20085;-69
2022/10/17 05:46:05;;;;;;;28.30;12.52;;;;;;;9.48;100.00;100118.25;4473583;32;20096;-69
2022/10/17 05:48:33;;;;;;;20.73;11.18;;;;;;;9.56;100.00;100124.69;4478050;32;20131;-69
2022/10/17 05:51:05;;;;;;;29.73;11.75;;;;;;;9.66;100.00;100126.72;4475560;32;20170;-69
2022/10/17 05:53:34;;;;;;;26.80;11.23;;;;;;;9.76;100.00;100133.06;4480974;32;20101;-69
2022/10/17 05:56:03;;;;;;;35.33;11.23;;;;;;;9.85;100.00;100140.31;4465625;32;20088;-69
2022/10/17 05:58:33;;;;;;;23.35;10.60;;;;;;;9.98;100.00;100136.91;4473899;32;20132;-68
2022/10/17 06:01:20;;;;;;;29.92;10.65;;;;;;;10.18;100.00;100153.97;4478815;32;20104;-69
2022/10/17 06:03:47;;;;;;;20.73;10.55;;;;;;;10.21;100.00;100148.53;4474907;32;20119;-69
2022/10/17 06:06:15;;;;;;;22.10;11.30;;;;;;;10.37;100.00;100153.59;4469383;32;20465;-69
2022/10/17 06:08:44;;;;;;;28.98;10.55;;;;;;;10.54;100.00;100160.38;4470766;31;20180;-69
2022/10/17 06:11:12;;;;;;;28.62;10.75;;;;;;;10.69;100.00;100166.34;4470722;32;20405;-72
2022/10/17 06:13:39;;;;;;;19.50;9.88;;;;;;;10.76;100.00;100165.81;4472304;32;20109;-71
2022/10/17 06:16:07;;;;;;;22.83;10.18;;;;;;;10.87;100.00;100174.75;4475353;32;20104;-72
2022/10/17 06:18:34;;;;;;;25.00;10.18;;;;;;;11.01;100.00;100172.03;4472376;32;20120;-71
2022/10/17 06:21:11;;;;;;;17.50;9.93;;;;;;;11.09;100.00;100171.50;4476119;32;20092;-72
2022/10/17 06:23:40;;;;;;;24.50;9.63;;;;;;;11.31;100.00;100173.44;4463245;32;20122;-71
2022/10/17 06:26:08;;;;;;;20.10;9.45;;;;;;;11.31;100.00;100176.06;4475698;32;20092;-71
2022/10/17 06:28:35;;;;;;;27.27;10.65;;;;;;;11.47;100.00;100181.94;4472977;32;20108;-71
2022/10/17 06:31:08;;;;;;;19.52;9.45;;;;;;;11.54;100.00;100185.81;4477150;32;20100;-72
2022/10/17 06:33:35;;;;;;;16.60;8.52;;;;;;;11.51;99.55;100183.41;4480470;32;20556;-72
2022/10/17 06:36:04;;;;;;;16.35;9.88;;;;;;;11.71;97.15;100184.59;4482828;32;20473;-71
2022/10/17 06:38:33;;;;;;;18.95;8.85;;;;;;;11.76;97.08;100186.91;4459583;32;20115;-71
2022/10/17 06:41:20;;;;;;;15.95;8.95;;;;;;;11.77;96.22;100191.22;4476456;32;20612;-70
2022/10/17 06:43:51;;;;;;;18.65;8.55;;;;;;;11.88;98.24;100193.94;4479678;32;20533;-73
2022/10/17 06:46:19;;;;;;;15.50;9.50;;;;;;;12.01;95.47;100198.31;4474247;32;20794;-72
2022/10/17 06:48:49;;;;;;;18.27;8.95;;;;;;;12.16;93.96;100204.25;4476695;32;20122;-73
2022/10/17 06:51:17;;;;;;;17.02;9.10;;;;;;;12.18;91.72;100205.78;4473576;32;20092;-73
2022/10/17 06:53:44;;;;;;;51.60;10.98;;;;;;;12.18;93.00;100203.16;4475874;32;20108;-72
2022/10/17 06:56:11;;;;;;;19.70;8.75;;;;;;;12.12;93.72;100202.78;4478790;32;20175;-73
2022/10/17 06:58:39;;;;;;;22.00;9.88;;;;;;;12.18;93.38;100216.31;4475658;32;20099;-72
2022/10/17 07:01:09;;;;;;;23.27;9.75;;;;;;;12.35;94.20;100224.75;4470346;31;20092;-72
2022/10/17 07:03:37;;;;;;;14.95;9.05;;;;;;;12.39;91.68;100218.31;4478704;32;20109;-71
2022/10/17 07:06:04;;;;;;;16.70;9.30;;;;;;;12.40;92.66;100225.25;4472341;32;20572;-74
2022/10/17 07:08:32;;;;;;;16.02;8.35;;;;;;;12.59;91.82;100224.72;4474287;32;20104;-73
2022/10/17 07:11:11;;;;;;;13.95;8.20;;;;;;;12.78;91.42;100221.56;4474471;32;20524;-74
2022/10/17 07:13:38;;;;;;;15.35;7.37;;;;;;;12.98;87.82;100229.75;4474492;32;20080;-73
2022/10/17 07:16:06;;;;;;;15.07;8.35;;;;;;;12.88;87.51;100227.78;4470538;32;20121;-72
2022/10/17 07:18:34;;;;;;;16.65;9.70;;;;;;;13.01;88.28;100232.97;4475591;32;20449;-71
2022/10/17 07:21:02;;;;;;;15.10;9.23;;;;;;;12.94;86.64;100237.88;4477996;32;20126;-72
2022/10/17 07:23:30;;;;;;;16.05;8.88;;;;;;;13.02;85.79;100234.66;4476879;32;20168;-73
2022/10/17 07:26:01;;;;;;;18.62;9.05;;;;;;;13.16;89.33;100235.38;4477263;31;20636;-74
2022/10/17 07:28:28;;;;;;;17.08;9.23;;;;;;;13.18;86.96;100236.94;4471661;32;20116;-71
2022/10/17 07:31:13;;;;;;;17.27;9.55;;;;;;;13.28;84.42;100237.09;4477906;32;20088;-71
2022/10/17 07:33:42;;;;;;;18.23;8.60;;;;;;;13.30;84.21;100243.87;4472115;32;20122;-71
2022/10/17 07:36:09;;;;;;;17.92;8.77;;;;;;;13.41;86.81;100239.63;4477808;32;20389;-72
2022/10/17 07:38:37;;;;;;;18.23;8.70;;;;;;;13.60;84.85;100239.88;4466887;32;20896;-73
2022/10/17 07:41:06;;;;;;;15.10;8.43;;;;;;;13.57;84.42;100237.47;4480144;32;20490;-74
2022/10/17 07:43:35;;;;;;;13.35;8.45;;;;;;;13.56;86.04;100246.31;4472321;32;20093;-73
2022/10/17 07:46:07;;;;;;;14.73;8.50;;;;;;;13.73;87.30;100239.75;4475404;32;20551;-74
2022/10/17 07:48:34;;;;;;;18.40;8.63;;;;;;;13.80;84.95;100240.09;4474686;32;20153;-71
2022/10/17 07:51:03;;;;;;;14.85;8.73;;;;;;;13.86;82.29;100239.59;4479076;32;20096;-73
2022/10/17 07:53:31;;;;;;;18.25;8.40;;;;;;;13.99;82.26;100239.47;4475701;32;20159;-73
2022/10/17 07:55:58;;;;;;;20.62;8.50;;;;;;;13.91;81.38;100237.44;4477426;32;20848;-72
2022/10/17 07:58:25;;;;;;;19.62;9.60;;;;;;;13.95;80.33;100248.59;4479377;32;20141;-73
2022/10/17 08:00:52;;;;;;;14.95;8.35;;;;;;;14.10;81.64;100243.87;4475733;32;20145;-71
2022/10/17 08:03:20;;;;;;;17.27;8.80;;;;;;;14.10;79.43;100242.06;4476923;32;20104;-72
2022/10/17 08:05:47;;;;;;;16.33;8.85;;;;;;;14.34;83.01;100254.25;4477719;32;20483;-72
2022/10/17 08:08:14;;;;;;;13.00;8.70;;;;;;;14.38;79.87;100255.66;4473755;32;20096;-74
2022/10/17 08:10:41;;;;;;;19.70;8.93;;;;;;;14.35;79.24;100259.41;4479327;32;20488;-75
2022/10/17 08:13:08;;;;;;;15.18;9.18;;;;;;;14.40;78.70;100263.44;4475553;32;20092;-75
2022/10/17 08:15:36;;;;;;;18.42;8.52;;;;;;;14.51;78.49;100263.41;4478339;32;20084;-73
2022/10/17 08:18:04;;;;;;;17.75;8.73;;;;;;;14.46;80.74;100255.88;4473398;32;20104;-72
2022/10/17 08:20:31;;;;;;;18.65;8.20;;;;;;;14.57;79.92;100264.72;4477676;32;20092;-72
2022/10/17 08:22:58;;;;;;;11.48;6.87;;;;;;;14.59;76.28;100265.41;4475927;32;20473;-73
2022/10/17 08:25:25;;;;;;;14.87;7.75;;;;;;;14.74;77.09;100272.09;4483443;32;20108;-72
2022/10/17 08:27:52;;;;;;;16.10;7.97;;;;;;;14.90;77.27;100266.38;4478614;32;20109;-73
2022/10/17 08:30:20;;;;;;;14.63;8.40;;;;;;;14.86;75.03;100271.06;4481064;32;20107;-72
2022/10/17 08:32:47;;;;;;;15.20;8.48;;;;;;;14.88;77.24;100271.78;4473302;32;20445;-72
2022/10/17 08:35:14;;;;;;;12.05;7.72;;;;;;;14.97;75.92;100270.16;4476606;32;20092;-71
2022/10/17 08:37:41;;;;;;;19.87;9.43;;;;;;;15.07;72.88;100267.59;4477284;32;20126;-71
2022/10/17 08:40:18;;;;;;;20.00;9.98;;;;;;;15.11;75.86;100273.47;4476661;32;20112;-71
2022/10/17 08:42:48;;;;;;;17.60;9.18;;;;;;;15.14;72.84;100273.19;4463824;32;20771;-72
2022/10/17 08:45:21;;;;;;;19.10;8.30;;;;;;;15.20;77.73;100273.53;4473867;32;20175;-72
2022/10/17 08:47:52;;;;;;;13.57;8.43;;;;;;;15.23;76.06;100273.28;4471150;32;20157;-71
2022/10/17 08:50:42;;;;;;;16.67;7.60;;;;;;;15.36;73.35;100273.03;4458723;32;20916;-72
2022/10/17 08:53:15;;;;;;;19.37;8.98;;;;;;;15.38;73.76;100276.41;4476050;32;20813;-73
2022/10/17 08:55:45;;;;;;;16.25;8.60;;;;;;;15.34;73.79;100267.06;4477905;32;20200;-72
2022/10/17 08:58:21;;;;;;;14.48;8.00;;;;;;;15.37;73.08;100272.09;4474768;32;20498;-72
2022/10/17 09:01:24;;;;;;;16.92;8.13;;;;;;;15.46;nan;100280.19;4459357;32;20164;-73
2022/10/17 09:04:12;;;;;;;15.70;8.90;;;;;;;15.47;75.81;100279.22;4417384;32;20141;-73
2022/10/17 09:06:54;;;;;;;18.12;9.25;;;;;;;15.54;73.72;100275.91;4416417;32;20105;-72
2022/10/17 09:09:29;;;;;;;14.90;9.20;;;;;;;15.57;73.78;100275.66;4405085;32;20143;-72
2022/10/17 09:12:22;;;;;;;17.58;8.15;;;;;;;15.60;71.78;100279.84;4409707;32;20121;-72
2022/10/17 09:15:08;;;;;;;14.90;8.50;;;;;;;15.64;72.16;100289.19;4411716;32;20124;-72
2022/10/17 09:17:52;;;;;;;17.58;7.75;;;;;;;15.78;72.32;100273.00;4421326;32;20299;-72
2022/10/17 09:20:29;;;;;;;20.50;10.27;;;;;;;15.67;71.54;100277.50;4412824;32;20148;-72
2022/10/17 09:23:03;;;;;;;18.30;8.68;;;;;;;15.76;69.66;100280.19;4413274;32;20117;-73
2022/10/17 09:25:48;;;;;;;16.00;9.68;;;;;;;15.89;71.75;100269.41;4403933;32;20201;-72
2022/10/17 09:28:37;;;;;;;17.50;9.75;;;;;;;15.98;72.14;100280.97;4404652;32;20447;-72
2022/10/17 09:31:21;;;;;;;13.48;8.30;;;;;;;16.07;72.83;100282.81;4418722;32;20132;-71
2022/10/17 09:33:50;;;;;;;18.73;8.25;;;;;;;16.24;70.27;100289.25;4396763;32;20753;-71
2022/10/17 09:36:30;;;;;;;16.42;7.53;;;;;;;16.10;69.93;100282.53;4412592;32;20701;-71
2022/10/17 09:38:59;;;;;;;19.58;8.57;;;;;;;16.08;71.73;100284.50;4418171;32;20098;-72
2022/10/17 09:41:33;;;;;;;17.25;7.75;;;;;;;16.26;70.21;100283.81;4454281;32;20498;-73
